createdAt,value
2022-07-31T00:00:15.543Z,10
2022-07-31T00:05:15.528Z,9
2022-07-31T00:10:15.469Z,9
2022-07-31T00:15:15.582Z,9
2022-07-31T00:20:15.465Z,8
2022-07-31T00:25:15.453Z,6
2022-07-31T00:30:15.633Z,9
2022-07-31T00:35:15.671Z,7
2022-07-31T00:40:15.631Z,6
2022-07-31T00:45:15.770Z,6
2022-07-31T00:50:15.539Z,8
2022-07-31T00:55:15.570Z,6
2022-07-31T01:00:15.594Z,5
2022-07-31T01:05:15.700Z,6
2022-07-31T01:10:15.837Z,8
2022-07-31T01:15:15.718Z,11
2022-07-31T01:20:15.635Z,10
2022-07-31T01:25:15.813Z,9
2022-07-31T01:30:15.798Z,8
2022-07-31T01:35:15.696Z,9
2022-07-31T01:40:15.771Z,5
2022-07-31T01:45:15.697Z,4
2022-07-31T01:50:15.700Z,4
2022-07-31T01:55:15.839Z,5
2022-07-31T02:00:33.696Z,7
2022-07-31T02:05:15.720Z,5
2022-07-31T02:10:15.720Z,4
2022-07-31T02:15:15.688Z,4
2022-07-31T02:20:16.072Z,4
2022-07-31T02:25:15.772Z,4
2022-07-31T02:30:15.950Z,3
2022-07-31T02:35:15.840Z,4
2022-07-31T02:40:15.808Z,3
2022-07-31T02:45:15.905Z,4
2022-07-31T02:50:20.306Z,5
2022-07-31T02:55:17.144Z,5
2022-07-31T03:00:16.815Z,5
2022-07-31T03:05:16.891Z,2
2022-07-31T03:10:16.872Z,3
2022-07-31T03:15:16.849Z,3
2022-07-31T03:20:16.940Z,2
2022-07-31T03:25:21.411Z,4
2022-07-31T03:30:16.848Z,4
2022-07-31T03:35:17.046Z,2
2022-07-31T03:40:17.084Z,2
2022-07-31T03:45:16.965Z,1
2022-07-31T03:50:17.017Z,1
2022-07-31T03:55:16.948Z,2
2022-07-31T04:00:16.957Z,2
2022-07-31T04:05:16.018Z,2
2022-07-31T04:10:16.119Z,3
2022-07-31T04:15:15.985Z,6
2022-07-31T04:20:15.985Z,7
2022-07-31T04:25:16.076Z,6
2022-07-31T04:30:16.157Z,7
2022-07-31T04:35:15.995Z,8
2022-07-31T04:40:16.113Z,9
2022-07-31T04:45:15.994Z,7
2022-07-31T04:50:16.250Z,10
2022-07-31T04:55:16.114Z,7
2022-07-31T05:00:16.307Z,8
2022-07-31T05:05:16.230Z,5
2022-07-31T05:10:16.188Z,4
2022-07-31T05:15:16.083Z,4
2022-07-31T05:20:16.146Z,6
2022-07-31T05:25:16.197Z,7
2022-07-31T05:30:16.147Z,8
2022-07-31T05:35:16.147Z,8
2022-07-31T05:40:16.286Z,9
2022-07-31T05:45:16.219Z,8
2022-07-31T05:50:16.256Z,8
2022-07-31T05:55:16.496Z,10
2022-07-31T06:00:16.219Z,8
2022-07-31T06:05:16.376Z,8
2022-07-31T06:10:16.331Z,8
2022-07-31T06:15:16.249Z,6
2022-07-31T06:20:16.245Z,4
2022-07-31T06:25:16.348Z,4
2022-07-31T06:30:16.410Z,7
2022-07-31T06:35:16.281Z,6
2022-07-31T06:40:16.276Z,6
2022-07-31T06:45:35.483Z,6
2022-07-31T06:50:17.491Z,6
2022-07-31T06:55:17.349Z,5
2022-07-31T07:00:20.601Z,9
2022-07-31T07:05:17.385Z,10
2022-07-31T07:10:15.394Z,8
2022-07-31T07:15:15.371Z,7
2022-07-31T07:20:15.530Z,8
2022-07-31T07:25:15.410Z,6
2022-07-31T07:30:15.568Z,6
2022-07-31T07:35:15.463Z,4
2022-07-31T07:40:15.472Z,4
2022-07-31T07:45:15.599Z,6
2022-07-31T07:50:15.605Z,5
2022-07-31T07:55:15.677Z,6
2022-07-31T08:00:15.662Z,6
2022-07-31T08:05:15.501Z,3
2022-07-31T08:10:15.544Z,2
2022-07-31T08:15:15.654Z,3
2022-07-31T08:20:15.521Z,2
2022-07-31T08:25:15.570Z,4
2022-07-31T08:30:15.584Z,3
2022-07-31T08:35:15.603Z,2
2022-07-31T08:40:15.636Z,4
2022-07-31T08:45:15.624Z,2
2022-07-31T08:50:15.598Z,3
2022-07-31T08:55:55.662Z,3
2022-07-31T09:00:15.563Z,3
2022-07-31T09:05:15.694Z,2
2022-07-31T09:10:15.744Z,2
2022-07-31T09:15:15.730Z,2
2022-07-31T09:20:15.856Z,3
2022-07-31T09:25:15.757Z,4
2022-07-31T09:30:15.702Z,4
2022-07-31T09:35:15.780Z,2
2022-07-31T09:40:15.767Z,1
2022-07-31T09:45:15.921Z,2
2022-07-31T09:50:15.717Z,3
2022-07-31T09:55:17.108Z,4
2022-07-31T10:00:17.362Z,2
2022-07-31T10:05:15.749Z,0
2022-07-31T10:10:15.782Z,1
2022-07-31T10:15:15.826Z,2
2022-07-31T10:20:15.832Z,2
2022-07-31T10:25:16.095Z,1
2022-07-31T10:30:15.847Z,2
2022-07-31T10:35:15.841Z,3
2022-07-31T10:40:15.704Z,4
2022-07-31T10:45:15.960Z,4
2022-07-31T10:50:15.838Z,5
2022-07-31T10:55:16.126Z,7
2022-07-31T11:00:15.926Z,7
2022-07-31T11:05:15.886Z,7
2022-07-31T11:10:15.925Z,4
2022-07-31T11:15:15.963Z,3
2022-07-31T11:20:15.916Z,5
2022-07-31T11:25:15.874Z,7
2022-07-31T11:30:16.019Z,4
2022-07-31T11:35:15.950Z,4
2022-07-31T11:40:16.025Z,4
2022-07-31T11:45:16.756Z,3
2022-07-31T11:50:15.989Z,4
2022-07-31T11:55:16.003Z,4
2022-07-31T12:00:26.949Z,3
2022-07-31T12:05:15.973Z,5
2022-07-31T12:10:16.067Z,5
2022-07-31T12:15:16.028Z,6
2022-07-31T12:20:29.770Z,6
2022-07-31T12:25:16.293Z,7
2022-07-31T12:30:16.132Z,6
2022-07-31T12:35:16.122Z,5
2022-07-31T12:40:16.237Z,6
2022-07-31T12:45:19.622Z,6
2022-07-31T12:50:16.118Z,5
2022-07-31T12:55:17.012Z,6
2022-07-31T13:00:16.180Z,6
2022-07-31T13:05:16.263Z,7
2022-07-31T13:10:21.384Z,6
2022-07-31T13:15:16.702Z,6
2022-07-31T13:20:16.813Z,8
2022-07-31T13:25:16.151Z,6
2022-07-31T13:30:16.381Z,8
2022-07-31T13:35:27.910Z,8
2022-07-31T13:40:16.223Z,7
2022-07-31T13:45:16.353Z,3
2022-07-31T13:50:16.246Z,6
2022-07-31T13:55:16.250Z,5
2022-07-31T14:00:16.337Z,6
2022-07-31T14:05:16.238Z,8
2022-07-31T14:10:20.341Z,6
2022-07-31T14:15:16.369Z,5
2022-07-31T14:20:16.374Z,5
2022-07-31T14:25:16.328Z,5
2022-07-31T14:30:19.905Z,6
2022-07-31T14:35:16.373Z,5
2022-07-31T14:40:16.405Z,5
2022-07-31T14:45:16.367Z,9
2022-07-31T14:50:19.776Z,6
2022-07-31T14:55:16.413Z,6
2022-07-31T15:00:16.464Z,6
2022-07-31T15:06:41.558Z,6
2022-07-31T15:06:51.153Z,6
2022-07-31T15:10:16.492Z,8
2022-07-31T15:15:16.448Z,8
2022-07-31T15:20:16.483Z,6
2022-07-31T15:25:16.434Z,8
2022-07-31T15:30:16.459Z,9
2022-07-31T15:35:16.532Z,5
2022-07-31T15:40:16.488Z,4
2022-07-31T15:45:16.460Z,4
2022-07-31T15:50:16.572Z,10
2022-07-31T15:55:16.802Z,11
2022-07-31T16:00:16.646Z,12
2022-07-31T16:05:36.044Z,15
2022-07-31T16:10:17.907Z,15
2022-07-31T16:15:16.894Z,14
2022-07-31T16:20:25.357Z,14
2022-07-31T16:25:16.661Z,16
2022-07-31T16:30:16.684Z,17
2022-07-31T16:35:16.647Z,14
2022-07-31T16:40:30.490Z,14
2022-07-31T16:45:16.749Z,15
2022-07-31T16:50:16.621Z,15
2022-07-31T16:55:16.721Z,16
2022-07-31T17:00:16.662Z,17
2022-07-31T17:05:16.666Z,17
2022-07-31T17:10:16.766Z,16
2022-07-31T17:15:16.877Z,14
2022-07-31T17:20:16.776Z,14
2022-07-31T17:25:16.707Z,13
2022-07-31T17:30:16.793Z,13
2022-07-31T17:35:16.705Z,14
2022-07-31T17:40:40.819Z,15
2022-07-31T17:45:16.753Z,14
2022-07-31T17:50:16.822Z,12
2022-07-31T17:55:16.804Z,14
2022-07-31T18:00:16.864Z,12
2022-07-31T18:05:16.778Z,11
2022-07-31T18:10:24.002Z,10
2022-07-31T18:15:16.811Z,18
2022-07-31T18:20:16.810Z,18
2022-07-31T18:25:17.146Z,19
2022-07-31T18:30:16.877Z,16
2022-07-31T18:35:16.831Z,18
2022-07-31T18:40:17.000Z,17
2022-07-31T18:45:16.869Z,17
2022-07-31T18:50:59.864Z,18
2022-07-31T18:55:16.909Z,18
2022-07-31T19:00:16.943Z,15
2022-07-31T19:05:21.370Z,14
2022-07-31T19:10:29.620Z,17
2022-07-31T19:15:17.102Z,20
2022-07-31T19:20:56.391Z,18
2022-07-31T19:25:16.987Z,19
2022-07-31T19:30:17.214Z,20
2022-07-31T19:35:17.164Z,17
2022-07-31T19:40:16.979Z,18
2022-07-31T19:45:17.080Z,16
2022-07-31T19:50:17.048Z,15
2022-07-31T19:55:17.036Z,15
2022-07-31T20:00:17.054Z,19
2022-07-31T20:05:17.103Z,16
2022-07-31T20:10:17.154Z,17
2022-07-31T20:15:17.063Z,17
2022-07-31T20:20:17.339Z,18
2022-07-31T20:25:20.101Z,18
2022-07-31T20:30:17.161Z,18
2022-07-31T20:35:32.833Z,18
2022-07-31T20:40:17.147Z,17
2022-07-31T20:45:17.140Z,17
2022-07-31T20:50:17.152Z,17
2022-07-31T20:55:17.134Z,18
2022-07-31T21:00:17.214Z,18
2022-07-31T21:05:27.057Z,19
2022-07-31T21:10:17.206Z,18
2022-07-31T21:15:28.460Z,15
2022-07-31T21:20:17.151Z,15
2022-07-31T21:25:17.245Z,16
2022-07-31T21:30:17.381Z,15
2022-07-31T21:35:17.306Z,14
2022-07-31T21:40:17.258Z,15
2022-07-31T21:45:17.257Z,12
2022-07-31T21:50:28.784Z,11
2022-07-31T21:55:17.314Z,10
2022-07-31T22:00:17.379Z,9
2022-07-31T22:05:17.333Z,10
2022-07-31T22:10:17.322Z,10
2022-07-31T22:15:17.370Z,11
2022-07-31T22:20:17.350Z,10
2022-07-31T22:25:15.370Z,9
2022-07-31T22:30:15.419Z,7
2022-07-31T22:35:15.356Z,9
2022-07-31T22:40:15.592Z,8
2022-07-31T22:45:15.443Z,7
2022-07-31T22:50:15.382Z,8
2022-07-31T22:55:15.572Z,8
2022-07-31T23:00:15.497Z,7
2022-07-31T23:05:15.539Z,7
2022-07-31T23:10:15.461Z,8
2022-07-31T23:15:15.588Z,10
2022-07-31T23:20:15.685Z,9
2022-07-31T23:25:15.617Z,8
2022-07-31T23:30:15.523Z,7
2022-07-31T23:35:15.693Z,6
2022-07-31T23:40:15.516Z,9
2022-07-31T23:45:15.722Z,10
2022-07-31T23:50:15.528Z,10
2022-07-31T23:55:15.627Z,9
